createdAt,value
2018-07-01T00:00:02.740Z,16.20
2018-07-01T00:02:34.886Z,16.90
2018-07-01T00:05:07.166Z,16.23
2018-07-01T00:07:38.991Z,16.40
2018-07-01T00:10:12.061Z,16.53
2018-07-01T00:12:43.703Z,16.83
2018-07-01T00:15:15.862Z,16.30
2018-07-01T00:17:48.881Z,18.27
2018-07-01T00:20:19.934Z,19.47
2018-07-01T00:22:50.954Z,17.40
2018-07-01T00:25:22.779Z,16.33
2018-07-01T00:27:54.648Z,16.70
2018-07-01T00:30:26.902Z,15.93
2018-07-01T00:32:58.525Z,16.57
2018-07-01T00:35:30.313Z,17.53
2018-07-01T00:38:02.238Z,14.90
2018-07-01T00:40:34.323Z,16.53
2018-07-01T00:43:05.434Z,17.30
2018-07-01T00:45:37.211Z,16.23
2018-07-01T00:48:09.150Z,16.13
2018-07-01T00:50:41.224Z,16.00
2018-07-01T00:53:12.726Z,17.10
2018-07-01T00:55:45.487Z,17.00
2018-07-01T00:58:17.185Z,15.60
2018-07-01T01:00:49.261Z,18.40
2018-07-01T01:03:21.336Z,16.70
2018-07-01T01:05:53.526Z,23.30
2018-07-01T01:08:25.063Z,21.60
2018-07-01T01:10:57.414Z,23.77
2018-07-01T01:13:29.074Z,23.63
2018-07-01T01:16:00.901Z,23.47
2018-07-01T01:18:34.500Z,24.97
2018-07-01T01:21:06.163Z,25.50
2018-07-01T01:23:37.798Z,26.83
2018-07-01T01:26:09.759Z,27.80
2018-07-01T01:28:41.917Z,23.67
2018-07-01T01:31:13.082Z,23.90
2018-07-01T01:33:44.930Z,24.40
2018-07-01T01:36:17.187Z,26.70
2018-07-01T01:38:49.477Z,26.20
2018-07-01T01:41:26.251Z,27.40
2018-07-01T01:44:02.392Z,28.53
2018-07-01T01:46:43.173Z,28.70
2018-07-01T01:49:25.259Z,30.30
2018-07-01T01:52:01.775Z,26.20
2018-07-01T01:55:36.817Z,27.47
2018-07-01T01:58:43.086Z,26.37
2018-07-01T02:01:25.981Z,30.23
2018-07-01T02:04:06.676Z,28.53
2018-07-01T02:06:42.433Z,30.57
2018-07-01T02:09:23.505Z,30.47
2018-07-01T02:11:56.602Z,30.37
2018-07-01T02:14:36.747Z,28.70
2018-07-01T02:17:11.452Z,30.33
2018-07-01T02:19:46.343Z,29.60
2018-07-01T02:22:21.566Z,29.30
2018-07-01T02:24:54.779Z,28.07
2018-07-01T02:27:26.922Z,29.23
2018-07-01T02:29:59.285Z,27.60
2018-07-01T02:32:31.223Z,30.13
2018-07-01T02:35:03.139Z,28.70
2018-07-01T02:37:34.796Z,27.57
2018-07-01T02:40:07.392Z,27.93
2018-07-01T02:42:39.330Z,26.60
2018-07-01T02:45:11.714Z,26.60
2018-07-01T02:47:43.508Z,25.83
2018-07-01T02:50:15.581Z,24.90
2018-07-01T02:52:47.366Z,24.80
2018-07-01T02:55:19.650Z,26.33
2018-07-01T02:57:51.617Z,26.20
2018-07-01T03:00:23.716Z,27.20
2018-07-01T03:02:55.523Z,28.07
2018-07-01T03:05:27.256Z,27.60
2018-07-01T03:07:59.139Z,26.27
2018-07-01T03:10:31.129Z,30.17
2018-07-01T03:13:02.716Z,26.43
2018-07-01T03:15:34.819Z,27.70
2018-07-01T03:18:06.531Z,23.73
2018-07-01T03:20:40.620Z,26.23
2018-07-01T03:23:12.347Z,23.80
2018-07-01T03:25:44.015Z,24.00
2018-07-01T03:28:15.758Z,24.20
2018-07-01T03:30:48.224Z,22.27
2018-07-01T03:33:20.009Z,22.73
2018-07-01T03:35:52.078Z,23.40
2018-07-01T03:38:23.896Z,23.23
2018-07-01T03:40:55.803Z,22.10
2018-07-01T03:43:27.469Z,20.80
2018-07-01T03:45:59.667Z,22.63
2018-07-01T03:48:31.393Z,20.10
2018-07-01T03:51:04.351Z,18.87
2018-07-01T03:53:36.425Z,17.03
2018-07-01T03:56:08.525Z,18.73
2018-07-01T03:58:40.247Z,17.23
2018-07-01T04:01:11.915Z,16.70
2018-07-01T04:03:43.909Z,15.10
2018-07-01T04:06:15.843Z,17.60
2018-07-01T04:08:47.538Z,16.07
2018-07-01T04:11:19.513Z,16.03
2018-07-01T04:13:51.252Z,17.00
2018-07-01T04:16:23.413Z,17.43
2018-07-01T04:18:55.038Z,17.33
2018-07-01T04:21:28.251Z,16.53
2018-07-01T04:24:00.135Z,14.97
2018-07-01T04:26:32.177Z,15.90
2018-07-01T04:29:03.963Z,15.20
2018-07-01T04:31:36.185Z,15.80
2018-07-01T04:34:07.965Z,15.83
2018-07-01T04:36:40.469Z,16.03
2018-07-01T04:39:12.402Z,14.90
2018-07-01T04:41:44.613Z,14.53
2018-07-01T04:44:16.410Z,15.47
2018-07-01T04:46:48.342Z,15.47
2018-07-01T04:49:20.391Z,14.87
2018-07-01T04:51:52.621Z,14.27
2018-07-01T04:54:24.192Z,14.07
2018-07-01T04:56:56.158Z,14.53
2018-07-01T04:59:27.922Z,14.53
2018-07-01T05:01:59.750Z,14.83
2018-07-01T05:04:31.370Z,13.90
2018-07-01T05:07:03.299Z,14.83
2018-07-01T05:09:34.035Z,14.67
2018-07-01T05:12:04.920Z,14.47
2018-07-01T05:14:36.894Z,14.35
2018-07-01T05:17:09.762Z,13.62
2018-07-01T05:19:41.730Z,14.60
2018-07-01T05:22:14.978Z,16.77
2018-07-01T05:24:46.746Z,16.42
2018-07-01T05:27:18.775Z,13.58
2018-07-01T05:29:50.714Z,17.30
2018-07-01T05:32:22.833Z,19.52
2018-07-01T05:34:54.490Z,18.27
2018-07-01T05:37:26.443Z,19.97
2018-07-01T05:39:58.225Z,18.70
2018-07-01T05:42:30.553Z,17.37
2018-07-01T05:45:02.785Z,18.55
2018-07-01T05:47:34.885Z,19.27
2018-07-01T05:50:06.715Z,20.00
2018-07-01T05:52:38.765Z,19.75
2018-07-01T05:55:10.595Z,18.12
2018-07-01T05:57:42.726Z,16.93
2018-07-01T06:00:14.457Z,16.37
2018-07-01T06:02:46.135Z,16.32
2018-07-01T06:05:17.755Z,15.75
2018-07-01T06:07:48.909Z,15.48
2018-07-01T06:10:20.607Z,15.98
2018-07-01T06:12:52.879Z,13.90
2018-07-01T06:15:24.560Z,14.68
2018-07-01T06:17:56.381Z,14.73
2018-07-01T06:20:28.246Z,14.30
2018-07-01T06:23:02.066Z,15.43
2018-07-01T06:25:32.870Z,14.63
2018-07-01T06:28:05.210Z,13.80
2018-07-01T06:30:36.870Z,14.40
2018-07-01T06:33:08.776Z,14.55
2018-07-01T06:35:40.671Z,12.88
2018-07-01T06:38:12.500Z,12.43
2018-07-01T06:40:44.330Z,13.22
2018-07-01T06:43:16.168Z,13.38
2018-07-01T06:45:47.160Z,12.37
2018-07-01T06:48:19.250Z,13.50
2018-07-01T06:50:50.972Z,13.30
2018-07-01T06:53:22.578Z,12.80
2018-07-01T06:55:54.415Z,13.30
2018-07-01T06:58:26.348Z,12.63
2018-07-01T07:00:58.102Z,13.98
2018-07-01T07:03:30.092Z,12.05
2018-07-01T07:06:01.959Z,13.03
2018-07-01T07:08:33.914Z,12.80
2018-07-01T07:11:05.629Z,12.70
2018-07-01T07:13:37.671Z,12.68
2018-07-01T07:16:09.305Z,11.65
2018-07-01T07:18:41.290Z,14.30
2018-07-01T07:21:13.141Z,14.43
2018-07-01T07:23:46.251Z,13.00
2018-07-01T07:26:17.895Z,12.07
2018-07-01T07:28:49.788Z,12.68
2018-07-01T07:31:21.726Z,14.45
2018-07-01T07:33:53.938Z,14.85
2018-07-01T07:36:25.714Z,13.53
2018-07-01T07:38:57.735Z,12.65
2018-07-01T07:41:29.277Z,13.00
2018-07-01T07:44:01.314Z,13.75
2018-07-01T07:46:33.209Z,13.88
2018-07-01T07:49:05.362Z,13.48
2018-07-01T07:51:37.185Z,12.75
2018-07-01T07:54:09.050Z,12.63
2018-07-01T07:56:40.805Z,13.18
2018-07-01T07:59:12.666Z,13.22
2018-07-01T08:01:44.367Z,13.80
2018-07-01T08:04:16.190Z,13.55
2018-07-01T08:06:47.877Z,15.03
2018-07-01T08:09:20.736Z,12.90
2018-07-01T08:11:53.201Z,12.33
2018-07-01T08:14:25.190Z,12.88
2018-07-01T08:16:56.871Z,12.70
2018-07-01T08:19:29.026Z,13.30
2018-07-01T08:22:01.010Z,10.82
2018-07-01T08:24:34.610Z,13.25
2018-07-01T08:27:06.379Z,13.03
2018-07-01T08:29:38.594Z,12.80
2018-07-01T08:32:10.310Z,12.53
2018-07-01T08:34:42.496Z,13.45
2018-07-01T08:37:14.457Z,12.55
2018-07-01T08:39:46.627Z,12.15
2018-07-01T08:42:22.837Z,12.47
2018-07-01T08:44:55.805Z,13.62
2018-07-01T08:47:27.641Z,13.58
2018-07-01T08:50:00.044Z,13.58
2018-07-01T08:52:32.094Z,13.00
2018-07-01T08:55:03.149Z,11.12
2018-07-01T08:57:35.131Z,11.78
2018-07-01T09:00:07.646Z,13.48
2018-07-01T09:02:40.644Z,12.18
2018-07-01T09:05:12.610Z,12.07
2018-07-01T09:07:44.372Z,12.78
2018-07-01T09:10:16.411Z,12.03
2018-07-01T09:12:48.164Z,12.20
2018-07-01T09:15:20.384Z,12.50
2018-07-01T09:17:51.936Z,12.15
2018-07-01T09:20:22.978Z,13.20
2018-07-01T09:22:53.910Z,13.40
2018-07-01T09:25:27.109Z,13.00
2018-07-01T09:27:58.962Z,13.00
2018-07-01T09:30:30.750Z,11.50
2018-07-01T09:33:02.524Z,10.95
2018-07-01T09:35:34.506Z,11.78
2018-07-01T09:38:06.234Z,12.25
2018-07-01T09:40:38.482Z,11.25
2018-07-01T09:43:10.055Z,13.00
2018-07-01T09:45:42.942Z,11.55
2018-07-01T09:48:13.862Z,12.20
2018-07-01T09:50:46.739Z,12.78
2018-07-01T09:53:18.648Z,12.78
2018-07-01T09:55:50.961Z,11.93
2018-07-01T09:58:22.614Z,13.08
2018-07-01T10:00:54.535Z,12.98
2018-07-01T10:03:25.376Z,14.73
2018-07-01T10:05:57.305Z,13.00
2018-07-01T10:08:29.395Z,12.30
2018-07-01T10:11:00.370Z,14.10
2018-07-01T10:13:31.975Z,13.58
2018-07-01T10:16:03.929Z,12.78
2018-07-01T10:18:35.854Z,13.03
2018-07-01T10:21:07.192Z,12.40
2018-07-01T10:23:38.927Z,12.18
2018-07-01T10:26:12.569Z,13.38
2018-07-01T10:29:15.481Z,14.40
2018-07-01T10:31:47.779Z,12.70
2018-07-01T10:34:19.560Z,12.85
2018-07-01T10:36:51.582Z,13.30
2018-07-01T10:39:23.572Z,12.73
2018-07-01T10:41:56.282Z,14.07
2018-07-01T10:44:28.090Z,13.18
2018-07-01T10:47:00.146Z,14.90
2018-07-01T10:49:32.094Z,13.13
2018-07-01T10:52:04.007Z,15.05
2018-07-01T10:54:35.695Z,13.18
2018-07-01T10:57:07.643Z,13.08
2018-07-01T10:59:38.519Z,14.63
2018-07-01T11:02:10.665Z,15.00
2018-07-01T11:04:42.387Z,15.32
2018-07-01T11:07:14.895Z,14.17
2018-07-01T11:09:46.605Z,13.70
2018-07-01T11:12:19.437Z,14.18
2018-07-01T11:14:51.442Z,13.90
2018-07-01T11:17:23.266Z,12.98
2018-07-01T11:19:54.867Z,14.28
2018-07-01T11:22:27.155Z,12.40
2018-07-01T11:24:58.864Z,13.15
2018-07-01T11:27:32.054Z,15.13
2018-07-01T11:30:03.943Z,14.05
2018-07-01T11:32:35.691Z,13.93
2018-07-01T11:35:07.682Z,13.87
2018-07-01T11:37:40.054Z,13.40
2018-07-01T11:40:11.745Z,14.77
2018-07-01T11:42:43.666Z,14.97
2018-07-01T11:45:15.469Z,13.83
2018-07-01T11:47:47.548Z,15.40
2018-07-01T11:50:19.480Z,13.80
2018-07-01T11:52:51.570Z,14.20
2018-07-01T11:55:23.405Z,14.47
2018-07-01T11:57:55.627Z,12.93
2018-07-01T12:00:27.505Z,14.00
2018-07-01T12:02:59.791Z,14.43
2018-07-01T12:05:31.821Z,14.37
2018-07-01T12:08:04.261Z,14.33
2018-07-01T12:10:34.862Z,14.27
2018-07-01T12:13:06.913Z,15.10
2018-07-01T12:15:38.627Z,13.13
2018-07-01T12:18:10.227Z,14.30
2018-07-01T12:20:42.467Z,14.20
2018-07-01T12:23:14.759Z,13.40
2018-07-01T12:25:46.647Z,16.63
2018-07-01T12:28:19.681Z,14.70
2018-07-01T12:30:51.451Z,13.70
2018-07-01T12:33:22.785Z,15.43
2018-07-01T12:35:54.798Z,14.77
2018-07-01T12:38:26.535Z,14.70
2018-07-01T12:40:58.795Z,15.30
2018-07-01T12:43:30.856Z,15.43
2018-07-01T12:46:02.550Z,14.83
2018-07-01T12:48:34.402Z,15.20
2018-07-01T12:51:06.504Z,13.13
2018-07-01T12:53:38.691Z,14.13
2018-07-01T12:56:10.495Z,15.60
2018-07-01T12:58:42.513Z,14.83
2018-07-01T13:01:14.446Z,14.40
2018-07-01T13:03:45.646Z,14.97
2018-07-01T13:06:17.350Z,15.73
2018-07-01T13:08:50.165Z,15.30
2018-07-01T13:11:22.985Z,14.73
2018-07-01T13:13:55.248Z,13.90
2018-07-01T13:16:27.494Z,15.20
2018-07-01T13:18:59.431Z,15.33
2018-07-01T13:21:31.372Z,15.10
2018-07-01T13:24:03.373Z,14.47
2018-07-01T13:26:35.393Z,14.17
2018-07-01T13:29:09.706Z,15.60
2018-07-01T13:31:41.559Z,14.90
2018-07-01T13:34:13.665Z,14.57
2018-07-01T13:36:45.434Z,15.00
2018-07-01T13:39:18.686Z,16.10
2018-07-01T13:41:50.359Z,14.97
2018-07-01T13:44:22.268Z,14.30
2018-07-01T13:46:54.078Z,15.17
2018-07-01T13:49:26.206Z,15.23
2018-07-01T13:51:58.145Z,15.17
2018-07-01T13:54:30.151Z,14.60
2018-07-01T13:57:02.071Z,14.97
2018-07-01T13:59:33.941Z,14.77
2018-07-01T14:02:05.662Z,15.00
2018-07-01T14:04:37.726Z,14.33
2018-07-01T14:07:09.323Z,16.23
2018-07-01T14:09:41.454Z,16.20
2018-07-01T14:12:13.423Z,16.00
2018-07-01T14:14:45.304Z,14.40
2018-07-01T14:17:16.988Z,14.90
2018-07-01T14:19:49.267Z,14.93
2018-07-01T14:22:20.819Z,16.30
2018-07-01T14:24:52.957Z,15.57
2018-07-01T14:27:24.929Z,14.53
2018-07-01T14:29:58.901Z,15.90
2018-07-01T14:32:30.565Z,16.03
2018-07-01T14:35:02.987Z,14.53
2018-07-01T14:37:34.747Z,15.00
2018-07-01T14:40:06.685Z,15.47
2018-07-01T14:42:38.583Z,15.30
2018-07-01T14:45:11.106Z,15.10
2018-07-01T14:47:41.982Z,14.43
2018-07-01T14:50:14.133Z,15.20
2018-07-01T14:52:45.791Z,15.67
2018-07-01T14:55:17.766Z,14.97
2018-07-01T14:57:49.621Z,15.00
2018-07-01T15:00:21.774Z,15.60
2018-07-01T15:02:53.449Z,15.50
2018-07-01T15:05:25.294Z,15.13
2018-07-01T15:07:58.069Z,15.67
2018-07-01T15:10:30.521Z,13.83
2018-07-01T15:13:02.533Z,15.00
2018-07-01T15:15:34.509Z,15.53
2018-07-01T15:18:06.349Z,16.87
2018-07-01T15:20:38.434Z,14.27
2018-07-01T15:23:10.391Z,16.10
2018-07-01T15:25:42.174Z,15.60
2018-07-01T15:28:13.810Z,15.20
2018-07-01T15:30:47.493Z,15.73
2018-07-01T15:33:19.275Z,16.23
2018-07-01T15:35:51.667Z,15.67
2018-07-01T15:38:23.435Z,14.13
2018-07-01T15:40:55.298Z,16.50
2018-07-01T15:43:27.217Z,15.80
2018-07-01T15:45:59.545Z,16.20
2018-07-01T15:48:31.697Z,16.03
2018-07-01T15:51:03.641Z,13.90
2018-07-01T15:53:35.269Z,16.30
2018-07-01T15:56:07.478Z,15.80
2018-07-01T15:58:39.214Z,15.20
2018-07-01T16:01:11.413Z,15.83
2018-07-01T16:03:43.096Z,17.10
2018-07-01T16:06:15.302Z,14.70
2018-07-01T16:08:47.251Z,16.50
2018-07-01T16:11:19.006Z,15.43
2018-07-01T16:13:50.750Z,16.50
2018-07-01T16:16:22.735Z,16.00
2018-07-01T16:21:30.641Z,17.80
2018-07-01T16:24:01.538Z,15.80
2018-07-01T16:26:38.410Z,16.47
2018-07-01T16:29:10.429Z,16.33
2018-07-01T16:31:49.754Z,17.23
2018-07-01T16:34:21.783Z,17.17
2018-07-01T16:36:53.554Z,19.50
2018-07-01T16:39:25.203Z,16.30
2018-07-01T16:41:57.059Z,16.40
2018-07-01T16:44:28.906Z,16.90
2018-07-01T16:47:01.045Z,16.77
2018-07-01T16:49:33.869Z,16.73
2018-07-01T16:52:05.965Z,15.40
2018-07-01T16:54:38.045Z,16.43
2018-07-01T16:57:10.109Z,15.27
2018-07-01T16:59:41.749Z,16.77
2018-07-01T17:02:13.655Z,15.80
2018-07-01T17:04:45.428Z,17.10
2018-07-01T17:07:17.144Z,16.90
2018-07-01T17:09:48.838Z,16.57
2018-07-01T17:12:20.781Z,18.60
2018-07-01T17:14:52.467Z,17.47
2018-07-01T17:17:24.314Z,17.20
2018-07-01T17:19:55.894Z,16.67
2018-07-01T17:22:28.069Z,16.80
2018-07-01T17:24:59.703Z,16.37
2018-07-01T17:27:31.639Z,16.63
2018-07-01T17:30:03.506Z,17.00
2018-07-01T17:32:41.570Z,18.10
2018-07-01T17:35:13.259Z,15.70
2018-07-01T17:37:45.187Z,16.93
2018-07-01T17:40:16.909Z,16.13
2018-07-01T17:42:47.664Z,17.50
2018-07-01T17:45:19.466Z,16.80
2018-07-01T17:47:51.482Z,17.43
2018-07-01T17:50:23.217Z,17.27
2018-07-01T17:52:54.938Z,16.90
2018-07-01T17:55:26.812Z,16.20
2018-07-01T17:57:58.722Z,16.90
2018-07-01T18:00:31.138Z,17.10
2018-07-01T18:03:03.345Z,16.20
2018-07-01T18:05:35.218Z,18.30
2018-07-01T18:08:06.387Z,16.43
2018-07-01T18:10:38.191Z,16.53
2018-07-01T18:13:10.343Z,15.80
2018-07-01T18:15:41.930Z,18.00
2018-07-01T18:18:13.778Z,18.00
2018-07-01T18:20:45.649Z,16.37
2018-07-01T18:23:44.887Z,15.20
2018-07-01T18:25:49.599Z,18.30
2018-07-01T18:28:34.108Z,17.07
2018-07-01T18:30:53.595Z,17.47
2018-07-01T18:33:27.001Z,17.73
2018-07-01T18:35:58.590Z,18.07
2018-07-01T18:38:30.592Z,17.40
2018-07-01T18:41:02.151Z,16.27
2018-07-01T18:43:34.378Z,17.70
2018-07-01T18:46:06.221Z,17.50
2018-07-01T18:48:38.357Z,18.17
2018-07-01T18:51:10.286Z,16.87
2018-07-01T18:53:42.282Z,17.90
2018-07-01T18:56:13.190Z,18.80
2018-07-01T18:58:46.010Z,16.90
2018-07-01T19:01:17.711Z,16.10
2018-07-01T19:03:49.742Z,16.60
2018-07-01T19:06:21.670Z,16.90
2018-07-01T19:08:53.815Z,18.60
2018-07-01T19:11:25.768Z,17.00
2018-07-01T19:13:58.018Z,19.43
2018-07-01T19:16:29.894Z,18.50
2018-07-01T19:19:02.171Z,18.20
2018-07-01T19:21:33.878Z,18.70
2018-07-01T19:24:05.883Z,17.90
2018-07-01T19:26:37.632Z,17.30
2018-07-01T19:29:09.720Z,18.63
2018-07-01T19:31:41.422Z,17.70
2018-07-01T19:34:15.070Z,16.13
2018-07-01T19:36:46.863Z,18.17
2018-07-01T19:39:18.929Z,19.47
2018-07-01T19:41:50.626Z,18.77
2018-07-01T19:44:22.330Z,18.30
2018-07-01T19:46:53.031Z,17.20
2018-07-01T19:49:24.919Z,19.07
2018-07-01T19:51:56.661Z,18.60
2018-07-01T19:54:28.812Z,17.40
2018-07-01T19:57:00.646Z,17.53
2018-07-01T19:59:32.742Z,18.33
2018-07-01T20:02:04.730Z,18.40
2018-07-01T20:04:36.750Z,17.53
2018-07-01T20:07:08.565Z,18.10
2018-07-01T20:09:40.554Z,17.70
2018-07-01T20:12:12.206Z,18.43
2018-07-01T20:14:44.215Z,18.37
2018-07-01T20:17:15.974Z,18.43
2018-07-01T20:19:48.160Z,19.40
2018-07-01T20:22:19.927Z,18.60
2018-07-01T20:24:51.809Z,18.37
2018-07-01T20:27:23.479Z,19.67
2018-07-01T20:29:55.422Z,19.83
2018-07-01T20:32:26.258Z,18.40
2018-07-01T20:34:59.709Z,19.10
2018-07-01T20:37:31.655Z,18.33
2018-07-01T20:40:03.802Z,18.13
2018-07-01T20:42:35.462Z,19.03
2018-07-01T20:45:07.720Z,20.27
2018-07-01T20:47:39.505Z,16.60
2018-07-01T20:50:11.516Z,21.47
2018-07-01T20:52:43.270Z,18.97
2018-07-01T20:55:15.099Z,17.47
2018-07-01T20:57:46.849Z,19.50
2018-07-01T21:00:19.271Z,17.40
2018-07-01T21:02:50.814Z,19.07
2018-07-01T21:05:22.854Z,18.83
2018-07-01T21:07:54.689Z,16.97
2018-07-01T21:10:25.854Z,18.50
2018-07-01T21:12:57.734Z,18.33
2018-07-01T21:15:30.102Z,18.90
2018-07-01T21:18:01.802Z,18.70
2018-07-01T21:20:33.822Z,19.73
2018-07-01T21:23:05.452Z,20.07
2018-07-01T21:25:37.579Z,19.13
2018-07-01T21:28:09.330Z,19.13
2018-07-01T21:30:41.137Z,19.70
2018-07-01T21:33:12.903Z,21.80
2018-07-01T21:35:46.238Z,21.40
2018-07-01T21:38:18.013Z,17.87
2018-07-01T21:40:49.961Z,19.00
2018-07-01T21:43:21.838Z,20.07
2018-07-01T21:45:53.899Z,18.20
2018-07-01T21:48:25.800Z,21.03
2018-07-01T21:50:58.018Z,20.07
2018-07-01T21:53:29.938Z,17.13
2018-07-01T21:56:01.939Z,18.87
2018-07-01T21:58:33.726Z,20.23
2018-07-01T22:01:07.709Z,18.23
2018-07-01T22:03:39.478Z,19.03
2018-07-01T22:06:11.805Z,18.77
2018-07-01T22:08:43.511Z,18.67
2018-07-01T22:11:47.799Z,19.40
2018-07-01T22:14:39.940Z,18.13
2018-07-01T22:17:12.913Z,20.37
2018-07-01T22:19:45.159Z,19.13
2018-07-01T22:22:17.113Z,22.43
2018-07-01T22:24:49.006Z,17.97
2018-07-01T22:27:21.986Z,19.40
2018-07-01T22:29:54.354Z,20.43
2018-07-01T22:32:26.281Z,18.27
2018-07-01T22:34:58.588Z,19.10
2018-07-01T22:37:32.739Z,19.37
2018-07-01T22:40:04.794Z,18.03
2018-07-01T22:42:36.857Z,20.60
2018-07-01T22:45:08.500Z,20.57
2018-07-01T22:47:40.602Z,19.70
2018-07-01T22:50:12.351Z,21.97
2018-07-01T22:52:44.415Z,21.00
2018-07-01T22:55:16.199Z,19.20
2018-07-01T22:57:48.340Z,21.03
2018-07-01T23:00:20.164Z,20.90
2018-07-01T23:03:02.624Z,20.17
2018-07-01T23:05:34.187Z,21.10
2018-07-01T23:08:07.166Z,19.07
2018-07-01T23:10:38.715Z,23.00
2018-07-01T23:13:11.159Z,18.77
2018-07-01T23:15:42.999Z,21.33
2018-07-01T23:18:14.811Z,21.00
2018-07-01T23:20:46.627Z,21.10
2018-07-01T23:23:18.674Z,20.33
2018-07-01T23:25:50.518Z,21.47
2018-07-01T23:28:22.362Z,20.93
2018-07-01T23:30:54.233Z,22.07
2018-07-01T23:33:26.593Z,21.20
2018-07-01T23:35:58.356Z,20.50
2018-07-01T23:38:31.797Z,21.83
2018-07-01T23:41:03.566Z,21.93
2018-07-01T23:43:35.669Z,21.17
2018-07-01T23:46:07.657Z,22.17
2018-07-01T23:48:38.656Z,20.80
2018-07-01T23:51:10.582Z,22.03
2018-07-01T23:53:42.503Z,22.27
2018-07-01T23:56:14.362Z,20.00
2018-07-01T23:58:47.012Z,22.67
